createdAt,value
2023-04-14T00:01:30.348Z,12.80
2023-04-14T00:03:56.861Z,12.83
2023-04-14T00:06:23.209Z,12.80
2023-04-14T00:08:49.637Z,12.71
2023-04-14T00:11:16.006Z,12.60
2023-04-14T00:13:42.427Z,12.73
2023-04-14T00:16:08.828Z,12.85
2023-04-14T00:18:35.259Z,12.86
2023-04-14T00:21:01.683Z,12.81
2023-04-14T00:23:28.072Z,12.81
2023-04-14T00:25:54.440Z,12.82
2023-04-14T00:28:21.009Z,12.81
2023-04-14T00:30:48.506Z,12.70
2023-04-14T00:33:14.863Z,12.72
2023-04-14T00:35:41.459Z,12.67
2023-04-14T00:38:07.842Z,12.67
2023-04-14T00:40:34.215Z,12.67
2023-04-14T00:43:00.631Z,12.63
2023-04-14T00:45:27.011Z,12.59
2023-04-14T00:47:53.500Z,12.56
2023-04-14T00:50:19.803Z,12.62
2023-04-14T00:52:46.211Z,12.70
2023-04-14T00:55:12.563Z,12.72
2023-04-14T00:57:38.993Z,12.71
2023-04-14T01:00:05.429Z,12.69
2023-04-14T01:02:31.939Z,12.66
2023-04-14T01:04:58.356Z,12.65
2023-04-14T01:07:24.612Z,12.67
2023-04-14T01:09:50.982Z,12.65
2023-04-14T01:12:17.376Z,12.60
2023-04-14T01:14:43.778Z,12.54
2023-04-14T01:17:10.161Z,12.50
2023-04-14T01:19:39.057Z,12.50
2023-04-14T01:22:05.483Z,12.48
2023-04-14T01:24:31.877Z,12.48
2023-04-14T01:26:58.243Z,12.52
2023-04-14T01:29:24.631Z,12.49
2023-04-14T01:31:51.050Z,12.50
2023-04-14T01:34:17.477Z,12.51
2023-04-14T01:36:43.943Z,12.53
2023-04-14T01:39:10.247Z,12.56
2023-04-14T01:41:36.683Z,12.62
2023-04-14T01:44:03.100Z,12.63
2023-04-14T01:46:29.526Z,12.68
2023-04-14T01:48:55.918Z,12.59
2023-04-14T01:51:22.323Z,12.54
2023-04-14T01:53:48.755Z,12.50
2023-04-14T01:56:15.146Z,12.47
2023-04-14T01:58:41.519Z,12.49
2023-04-14T02:01:08.052Z,12.53
2023-04-14T02:03:34.384Z,12.44
2023-04-14T02:06:00.756Z,12.38
2023-04-14T02:08:27.168Z,12.43
2023-04-14T02:10:53.628Z,12.40
2023-04-14T02:13:20.019Z,12.38
2023-04-14T02:15:46.433Z,12.33
2023-04-14T02:18:12.942Z,12.27
2023-04-14T02:20:39.325Z,12.23
2023-04-14T02:23:05.691Z,12.19
2023-04-14T02:25:32.072Z,12.18
2023-04-14T02:27:58.477Z,12.22
2023-04-14T02:30:25.019Z,12.18
2023-04-14T02:32:51.363Z,12.16
2023-04-14T02:35:17.711Z,12.17
2023-04-14T02:37:44.175Z,12.12
2023-04-14T02:40:10.558Z,12.16
2023-04-14T02:42:36.979Z,12.14
2023-04-14T02:45:03.394Z,12.18
2023-04-14T02:47:29.798Z,12.19
2023-04-14T02:49:56.143Z,12.23
2023-04-14T02:52:22.565Z,12.12
2023-04-14T02:54:49.031Z,12.11
2023-04-14T02:57:15.398Z,12.21
2023-04-14T02:59:41.826Z,12.22
2023-04-14T03:02:08.403Z,12.17
2023-04-14T03:04:34.708Z,12.14
2023-04-14T03:07:01.023Z,12.11
2023-04-14T03:09:27.396Z,12.05
2023-04-14T03:11:53.814Z,12.08
2023-04-14T03:14:20.238Z,12.05
2023-04-14T03:16:46.660Z,12.03
2023-04-14T03:19:13.050Z,12.04
2023-04-14T03:21:39.465Z,12.06
2023-04-14T03:24:05.871Z,12.04
2023-04-14T03:26:32.235Z,11.96
2023-04-14T03:28:58.693Z,11.97
2023-04-14T03:31:25.006Z,12.03
2023-04-14T03:33:51.381Z,12.06
2023-04-14T03:36:17.813Z,12.10
2023-04-14T03:38:44.188Z,12.07
2023-04-14T03:41:10.608Z,12.01
2023-04-14T03:43:36.975Z,12.02
2023-04-14T03:46:03.417Z,11.98
2023-04-14T03:48:29.842Z,11.93
2023-04-14T03:50:56.164Z,11.89
2023-04-14T03:53:22.542Z,11.88
2023-04-14T03:55:48.968Z,11.81
2023-04-14T03:58:15.353Z,11.76
2023-04-14T04:00:41.747Z,11.65
2023-04-14T04:03:08.334Z,11.62
2023-04-14T04:05:34.591Z,11.58
2023-04-14T04:08:00.981Z,11.57
2023-04-14T04:10:27.327Z,11.62
2023-04-14T04:12:53.702Z,11.61
2023-04-14T04:15:20.096Z,11.61
2023-04-14T04:17:46.552Z,11.62
2023-04-14T04:20:12.920Z,11.63
2023-04-14T04:22:39.363Z,11.66
2023-04-14T04:25:05.781Z,11.64
2023-04-14T04:27:32.168Z,11.67
2023-04-14T04:29:58.674Z,11.73
2023-04-14T04:32:25.244Z,11.73
2023-04-14T04:34:51.382Z,11.87
2023-04-14T04:37:17.798Z,11.95
2023-04-14T04:39:44.160Z,11.96
2023-04-14T04:42:10.578Z,11.99
2023-04-14T04:44:36.957Z,12.09
2023-04-14T04:47:03.331Z,12.24
2023-04-14T04:49:29.897Z,12.38
2023-04-14T04:51:56.301Z,12.45
2023-04-14T04:54:22.719Z,12.54
2023-04-14T04:56:49.159Z,12.56
2023-04-14T04:59:15.541Z,12.64
2023-04-14T05:01:41.959Z,12.59
2023-04-14T05:04:08.675Z,12.60
2023-04-14T05:06:34.994Z,12.74
2023-04-14T05:09:01.666Z,12.85
2023-04-14T05:11:27.826Z,12.88
2023-04-14T05:13:54.450Z,12.87
2023-04-14T05:16:20.990Z,12.83
2023-04-14T05:18:47.264Z,12.85
2023-04-14T05:21:13.629Z,12.87
2023-04-14T05:23:40.038Z,12.91
2023-04-14T05:26:26.963Z,13.10
2023-04-14T05:28:32.871Z,13.35
2023-04-14T05:31:01.265Z,13.35
2023-04-14T05:33:25.735Z,13.47
2023-04-14T05:35:52.147Z,13.57
2023-04-14T05:38:18.557Z,13.56
2023-04-14T05:40:45.018Z,13.67
2023-04-14T05:43:11.402Z,13.70
2023-04-14T05:45:37.806Z,13.70
2023-04-14T05:48:04.313Z,13.72
2023-04-14T05:50:30.654Z,13.79
2023-04-14T05:52:57.075Z,13.85
2023-04-14T05:55:23.449Z,13.91
2023-04-14T05:57:49.824Z,14.09
2023-04-14T06:00:16.228Z,14.13
2023-04-14T06:02:42.846Z,14.13
2023-04-14T06:05:09.140Z,14.05
2023-04-14T06:07:35.960Z,14.09
2023-04-14T06:10:02.350Z,14.06
2023-04-14T06:12:28.756Z,14.10
2023-04-14T06:14:55.387Z,14.09
2023-04-14T06:17:21.840Z,14.10
2023-04-14T06:19:48.199Z,14.04
2023-04-14T06:22:14.610Z,14.04
2023-04-14T06:24:42.320Z,14.08
2023-04-14T06:27:08.734Z,14.08
2023-04-14T06:29:35.103Z,14.16
2023-04-14T06:32:01.561Z,14.28
2023-04-14T06:34:27.964Z,14.39
2023-04-14T06:36:54.334Z,14.44
2023-04-14T06:39:20.708Z,14.43
2023-04-14T06:41:47.118Z,14.49
2023-04-14T06:44:13.480Z,14.52
2023-04-14T06:46:39.920Z,14.43
2023-04-14T06:49:06.608Z,14.41
2023-04-14T06:51:32.988Z,14.60
2023-04-14T06:53:59.605Z,14.61
2023-04-14T06:56:26.068Z,14.52
2023-04-14T06:58:52.489Z,14.70
2023-04-14T07:01:18.885Z,14.91
2023-04-14T07:03:45.251Z,15.26
2023-04-14T07:06:11.926Z,15.33
2023-04-14T07:08:38.199Z,15.68
2023-04-14T07:11:04.632Z,16.17
2023-04-14T07:13:30.996Z,17.02
2023-04-14T07:15:57.415Z,17.68
2023-04-14T07:18:23.798Z,18.34
2023-04-14T07:20:50.178Z,18.47
2023-04-14T07:23:16.625Z,18.08
2023-04-14T07:25:43.041Z,18.12
2023-04-14T07:28:09.431Z,18.75
2023-04-14T07:30:35.837Z,18.75
2023-04-14T07:33:02.293Z,18.69
2023-04-14T07:35:28.633Z,18.70
2023-04-14T07:37:55.223Z,18.85
2023-04-14T07:40:21.638Z,18.84
2023-04-14T07:42:48.106Z,19.22
2023-04-14T07:45:14.470Z,19.47
2023-04-14T07:47:41.049Z,19.38
2023-04-14T07:50:07.436Z,18.93
2023-04-14T07:52:33.819Z,19.26
2023-04-14T07:55:00.308Z,19.02
2023-04-14T07:57:26.729Z,19.95
2023-04-14T07:59:53.108Z,20.43
2023-04-14T08:02:19.577Z,20.20
2023-04-14T08:04:45.929Z,20.64
2023-04-14T08:07:12.297Z,20.34
2023-04-14T08:09:38.804Z,20.17
2023-04-14T08:12:05.216Z,20.14
2023-04-14T08:14:31.637Z,20.44
2023-04-14T08:16:58.010Z,20.37
2023-04-14T08:19:24.432Z,20.24
2023-04-14T08:21:50.846Z,20.42
2023-04-14T08:24:17.279Z,20.64
2023-04-14T08:26:43.668Z,20.65
2023-04-14T08:29:10.047Z,20.85
2023-04-14T08:31:36.487Z,21.19
2023-04-14T08:34:02.862Z,21.62
2023-04-14T08:36:29.240Z,21.76
2023-04-14T08:38:55.789Z,21.67
2023-04-14T08:41:22.195Z,22.00
2023-04-14T08:43:48.579Z,21.89
2023-04-14T08:46:14.987Z,22.33
2023-04-14T08:48:41.354Z,22.80
2023-04-14T08:51:07.793Z,22.35
2023-04-14T08:53:34.226Z,22.82
2023-04-14T08:56:00.596Z,21.44
2023-04-14T08:58:27.005Z,21.60
2023-04-14T09:00:53.723Z,21.76
2023-04-14T09:03:20.240Z,21.89
2023-04-14T09:05:46.447Z,21.49
2023-04-14T09:08:12.864Z,21.27
2023-04-14T09:10:40.702Z,20.84
2023-04-14T09:13:07.328Z,21.78
2023-04-14T09:15:33.695Z,21.04
2023-04-14T09:18:00.487Z,20.57
2023-04-14T09:20:35.718Z,21.65
2023-04-14T09:22:53.259Z,23.19
2023-04-14T09:25:19.653Z,23.63
2023-04-14T09:27:46.000Z,24.23
2023-04-14T09:30:12.503Z,24.82
2023-04-14T09:32:38.963Z,25.71
2023-04-14T09:35:05.637Z,26.39
2023-04-14T09:37:32.003Z,25.68
2023-04-14T09:39:58.384Z,25.08
2023-04-14T09:42:24.759Z,25.49
2023-04-14T09:44:51.164Z,25.24
2023-04-14T09:47:17.599Z,26.06
2023-04-14T09:49:43.958Z,26.59
2023-04-14T09:52:10.353Z,26.26
2023-04-14T09:54:36.931Z,26.04
2023-04-14T09:57:03.376Z,25.16
2023-04-14T09:59:29.788Z,25.18
2023-04-14T10:01:56.408Z,25.33
2023-04-14T10:04:23.994Z,25.48
2023-04-14T10:06:49.104Z,26.14
2023-04-14T10:09:15.551Z,26.16
2023-04-14T10:11:41.980Z,25.43
2023-04-14T10:14:08.355Z,24.26
2023-04-14T10:16:34.999Z,23.17
2023-04-14T10:19:01.290Z,22.25
2023-04-14T10:21:27.505Z,21.71
2023-04-14T10:23:53.913Z,21.34
2023-04-14T10:26:20.292Z,20.94
2023-04-14T10:28:46.813Z,20.89
2023-04-14T10:31:13.254Z,20.90
2023-04-14T10:33:39.594Z,20.88
2023-04-14T10:36:06.035Z,20.39
2023-04-14T10:38:32.736Z,19.92
2023-04-14T10:40:59.131Z,19.85
2023-04-14T10:43:25.547Z,19.21
2023-04-14T10:45:51.913Z,18.88
2023-04-14T10:48:18.473Z,18.55
2023-04-14T10:50:44.897Z,18.24
2023-04-14T10:53:11.307Z,17.78
2023-04-14T10:55:51.354Z,17.28
2023-04-14T10:58:04.137Z,17.09
2023-04-14T11:00:30.509Z,16.64
2023-04-14T11:02:57.125Z,16.30
2023-04-14T11:05:23.343Z,15.78
2023-04-14T11:07:49.751Z,15.56
2023-04-14T11:10:16.307Z,15.43
2023-04-14T11:12:42.657Z,15.18
2023-04-14T11:15:09.020Z,15.13
2023-04-14T11:17:35.566Z,15.19
2023-04-14T11:20:01.817Z,15.19
2023-04-14T11:22:28.141Z,15.15
2023-04-14T11:24:56.709Z,15.14
2023-04-14T11:27:23.281Z,15.18
2023-04-14T11:29:49.689Z,15.24
2023-04-14T11:32:16.199Z,15.23
2023-04-14T11:34:42.731Z,15.19
2023-04-14T11:37:09.194Z,15.02
2023-04-14T11:39:35.586Z,14.69
2023-04-14T11:42:02.128Z,14.42
2023-04-14T11:44:28.482Z,14.37
2023-04-14T11:46:55.863Z,14.15
2023-04-14T11:49:22.303Z,14.01
2023-04-14T11:51:48.628Z,13.78
2023-04-14T11:54:15.079Z,13.68
2023-04-14T11:56:41.561Z,13.48
2023-04-14T11:59:07.934Z,13.43
2023-04-14T12:01:34.333Z,13.23
2023-04-14T12:04:00.851Z,13.06
2023-04-14T12:06:27.106Z,12.97
2023-04-14T12:08:53.535Z,13.00
2023-04-14T12:11:19.910Z,12.93
2023-04-14T12:13:46.342Z,12.81
2023-04-14T12:16:12.856Z,12.68
2023-04-14T12:18:39.381Z,12.65
2023-04-14T12:21:07.307Z,12.44
2023-04-14T12:23:32.322Z,12.22
2023-04-14T12:25:58.730Z,12.09
2023-04-14T12:28:25.245Z,11.92
2023-04-14T12:30:51.776Z,11.85
2023-04-14T12:33:18.150Z,11.63
2023-04-14T12:35:44.529Z,11.62
2023-04-14T12:38:10.935Z,11.70
2023-04-14T12:40:37.296Z,11.71
2023-04-14T12:43:03.678Z,11.81
2023-04-14T12:45:30.300Z,11.77
2023-04-14T12:47:56.633Z,11.90
2023-04-14T12:50:25.299Z,11.94
2023-04-14T12:52:51.750Z,11.97
2023-04-14T12:55:18.183Z,12.06
2023-04-14T12:57:44.550Z,12.17
2023-04-14T13:00:11.005Z,12.26
2023-04-14T13:02:37.484Z,12.32
2023-04-14T13:05:03.788Z,12.28
2023-04-14T13:07:30.192Z,12.31
2023-04-14T13:09:56.620Z,12.24
2023-04-14T13:12:23.041Z,12.35
2023-04-14T13:14:49.688Z,12.43
2023-04-14T13:17:16.294Z,12.50
2023-04-14T13:19:42.685Z,12.46
2023-04-14T13:22:09.130Z,12.53
2023-04-14T13:24:35.455Z,12.69
2023-04-14T13:27:01.836Z,12.74
2023-04-14T13:29:28.274Z,12.77
2023-04-14T13:31:56.857Z,12.71
2023-04-14T13:34:23.234Z,12.74
2023-04-14T13:36:49.606Z,12.66
2023-04-14T13:39:16.303Z,12.64
2023-04-14T13:41:43.060Z,12.67
2023-04-14T13:44:09.773Z,12.67
2023-04-14T13:46:41.125Z,12.76
2023-04-14T13:49:04.276Z,12.95
2023-04-14T13:51:31.708Z,13.05
2023-04-14T13:53:57.276Z,12.71
2023-04-14T13:56:23.733Z,12.44
2023-04-14T13:58:50.113Z,12.27
2023-04-14T14:01:16.495Z,12.19
2023-04-14T14:03:43.395Z,12.23
2023-04-14T14:06:09.745Z,12.27
2023-04-14T14:08:36.234Z,12.36
2023-04-14T14:11:02.630Z,12.49
2023-04-14T14:13:29.014Z,12.60
2023-04-14T14:15:55.446Z,12.66
2023-04-14T14:18:21.842Z,12.73
2023-04-14T14:20:50.026Z,12.71
2023-04-14T14:23:14.989Z,12.60
2023-04-14T14:25:41.406Z,12.71
2023-04-14T14:28:07.897Z,12.72
2023-04-14T14:30:34.563Z,12.70
2023-04-14T14:33:01.085Z,12.61
2023-04-14T14:35:27.750Z,12.54
2023-04-14T14:37:54.145Z,12.53
2023-04-14T14:40:20.587Z,12.55
2023-04-14T14:42:47.461Z,12.61
2023-04-14T14:45:13.887Z,12.66
2023-04-14T14:47:40.423Z,12.75
2023-04-14T14:50:08.458Z,12.80
2023-04-14T14:52:33.068Z,12.95
2023-04-14T14:54:59.760Z,13.11
2023-04-14T14:57:26.150Z,13.25
2023-04-14T14:59:52.546Z,13.39
2023-04-14T15:02:19.105Z,13.60
2023-04-14T15:04:47.603Z,13.78
2023-04-14T15:07:13.997Z,13.89
2023-04-14T15:09:40.382Z,14.02
2023-04-14T15:12:06.768Z,14.19
2023-04-14T15:14:33.287Z,14.48
2023-04-14T15:16:59.726Z,14.72
2023-04-14T15:19:26.099Z,14.75
2023-04-14T15:21:52.592Z,14.66
2023-04-14T15:24:20.112Z,14.67
2023-04-14T15:26:46.476Z,14.76
2023-04-14T15:29:13.012Z,14.83
2023-04-14T15:31:39.403Z,14.87
2023-04-14T15:34:05.721Z,14.99
2023-04-14T15:36:32.141Z,15.17
2023-04-14T15:38:58.519Z,15.25
2023-04-14T15:41:24.898Z,15.15
2023-04-14T15:43:51.265Z,15.12
2023-04-14T15:46:17.827Z,15.10
2023-04-14T15:48:44.161Z,14.94
2023-04-14T15:51:10.594Z,14.92
2023-04-14T15:53:37.099Z,14.85
2023-04-14T15:56:03.423Z,14.75
2023-04-14T15:58:29.838Z,14.74
2023-04-14T16:00:56.306Z,14.73
2023-04-14T16:03:23.162Z,14.73
2023-04-14T16:05:49.597Z,14.69
2023-04-14T16:08:16.152Z,14.62
2023-04-14T16:10:43.010Z,14.58
2023-04-14T16:13:09.422Z,14.52
2023-04-14T16:15:35.883Z,14.45
2023-04-14T16:18:02.277Z,14.41
2023-04-14T16:20:28.670Z,14.35
2023-04-14T16:22:55.027Z,14.23
2023-04-14T16:25:22.228Z,14.09
2023-04-14T16:27:47.869Z,14.00
2023-04-14T16:30:14.259Z,13.91
2023-04-14T16:32:40.704Z,13.88
2023-04-14T16:35:09.013Z,13.79
2023-04-14T16:37:35.442Z,13.75
2023-04-14T16:40:01.935Z,13.72
2023-04-14T16:42:28.354Z,13.65
2023-04-14T16:44:54.732Z,13.63
2023-04-14T16:47:21.137Z,13.57
2023-04-14T16:49:47.519Z,13.59
2023-04-14T16:52:14.968Z,13.59
2023-04-14T16:54:41.377Z,13.59
2023-04-14T16:57:07.788Z,13.56
2023-04-14T16:59:34.274Z,13.62
2023-04-14T17:02:00.857Z,13.64
2023-04-14T17:04:27.546Z,13.58
2023-04-14T17:06:53.806Z,13.49
2023-04-14T17:09:20.187Z,13.43
2023-04-14T17:11:46.692Z,13.31
2023-04-14T17:14:13.059Z,13.25
2023-04-14T17:16:39.499Z,13.28
2023-04-14T17:19:05.900Z,13.20
2023-04-14T17:21:32.456Z,12.98
2023-04-14T17:23:58.835Z,12.89
2023-04-14T17:26:25.331Z,12.85
2023-04-14T17:28:52.740Z,12.83
2023-04-14T17:31:19.136Z,12.81
2023-04-14T17:33:45.509Z,12.82
2023-04-14T17:36:11.878Z,12.89
2023-04-14T17:38:38.298Z,12.88
2023-04-14T17:41:04.747Z,12.91
2023-04-14T17:43:31.129Z,12.83
2023-04-14T17:45:59.817Z,12.76
2023-04-14T17:48:27.279Z,12.80
2023-04-14T17:50:53.678Z,12.86
2023-04-14T17:53:20.127Z,13.21
2023-04-14T17:55:46.530Z,13.42
2023-04-14T17:58:12.950Z,13.72
2023-04-14T18:00:39.345Z,13.82
2023-04-14T18:03:05.947Z,13.87
2023-04-14T18:05:32.266Z,13.78
2023-04-14T18:07:58.739Z,13.63
2023-04-14T18:10:25.104Z,14.56
2023-04-14T18:12:51.492Z,14.76
2023-04-14T18:15:17.943Z,14.76
2023-04-14T18:17:44.317Z,14.72
2023-04-14T18:20:10.729Z,14.84
2023-04-14T18:22:37.099Z,14.95
2023-04-14T18:25:03.488Z,14.94
2023-04-14T18:29:56.404Z,14.67
2023-04-14T18:32:22.853Z,15.06
2023-04-14T18:34:49.290Z,15.11
2023-04-14T18:37:15.714Z,15.06
2023-04-14T18:39:42.022Z,14.91
2023-04-14T18:42:08.489Z,14.60
2023-04-14T18:44:34.856Z,14.35
2023-04-14T18:47:01.297Z,14.21
2023-04-14T18:49:27.697Z,14.17
2023-04-14T18:51:54.113Z,14.09
2023-04-14T18:54:20.587Z,13.85
2023-04-14T18:56:47.089Z,13.64
2023-04-14T18:59:13.603Z,13.55
2023-04-14T19:01:40.039Z,13.61
2023-04-14T19:04:06.463Z,13.58
2023-04-14T19:06:32.957Z,13.58
2023-04-14T19:08:59.586Z,13.28
2023-04-14T19:11:25.756Z,13.02
2023-04-14T19:13:52.175Z,12.88
2023-04-14T19:16:19.033Z,12.79
2023-04-14T19:18:45.619Z,12.69
2023-04-14T19:21:12.006Z,12.62
2023-04-14T19:23:38.461Z,12.47
2023-04-14T19:26:04.933Z,12.33
2023-04-14T19:28:31.344Z,12.24
2023-04-14T19:30:57.728Z,12.15
2023-04-14T19:33:26.749Z,12.13
2023-04-14T19:35:51.167Z,12.02
2023-04-14T19:38:17.700Z,11.81
2023-04-14T19:40:44.076Z,11.58
2023-04-14T19:43:10.444Z,11.46
2023-04-14T19:45:36.810Z,11.39
2023-04-14T19:48:15.962Z,11.29
2023-04-14T19:50:29.651Z,11.21
2023-04-14T19:52:56.056Z,11.08
2023-04-14T19:55:22.529Z,10.91
2023-04-14T19:57:48.958Z,10.82
2023-04-14T20:00:15.453Z,10.73
2023-04-14T20:02:41.899Z,10.68
2023-04-14T20:05:08.287Z,10.61
2023-04-14T20:07:34.667Z,10.58
2023-04-14T20:10:01.334Z,10.50
2023-04-14T20:12:27.691Z,10.45
2023-04-14T20:14:54.116Z,10.29
2023-04-14T20:17:20.680Z,10.19
2023-04-14T20:19:47.028Z,10.15
2023-04-14T20:22:13.440Z,10.09
2023-04-14T20:24:39.857Z,10.12
2023-04-14T20:27:06.286Z,10.13
2023-04-14T20:29:32.714Z,10.03
2023-04-14T20:31:59.264Z,9.98
2023-04-14T20:34:25.703Z,9.95
2023-04-14T20:36:52.078Z,9.89
2023-04-14T20:39:19.634Z,9.84
2023-04-14T20:41:46.056Z,9.84
2023-04-14T20:44:12.484Z,9.80
2023-04-14T20:46:38.956Z,9.74
2023-04-14T20:49:05.384Z,9.78
2023-04-14T20:51:31.742Z,9.80
2023-04-14T20:53:58.160Z,9.74
2023-04-14T20:56:24.642Z,9.69
2023-04-14T20:58:51.062Z,9.62
2023-04-14T21:01:17.819Z,9.53
2023-04-14T21:03:44.444Z,9.61
2023-04-14T21:06:10.577Z,9.70
2023-04-14T21:08:37.007Z,9.63
2023-04-14T21:11:16.292Z,9.50
2023-04-14T21:15:24.985Z,9.44
2023-04-14T21:15:56.991Z,9.47
2023-04-14T21:18:22.768Z,9.58
2023-04-14T21:20:49.136Z,9.62
2023-04-14T21:23:15.546Z,9.58
2023-04-14T21:25:41.934Z,9.52
2023-04-14T21:28:08.357Z,9.56
2023-04-14T21:30:34.722Z,9.51
2023-04-14T21:33:01.204Z,9.44
2023-04-14T21:35:27.632Z,9.48
2023-04-14T21:37:53.997Z,9.50
2023-04-14T21:40:20.456Z,9.43
2023-04-14T21:42:46.967Z,9.60
2023-04-14T21:45:15.763Z,9.74
2023-04-14T21:47:42.398Z,9.86
2023-04-14T21:50:08.837Z,9.98
2023-04-14T21:52:35.244Z,10.02
2023-04-14T21:55:01.614Z,9.96
2023-04-14T21:57:48.433Z,9.89
2023-04-14T21:59:54.432Z,9.78
2023-04-14T22:02:20.967Z,9.69
2023-04-14T22:04:47.261Z,9.68
2023-04-14T22:07:13.654Z,9.58
2023-04-14T22:09:40.547Z,9.53
2023-04-14T22:12:06.445Z,9.48
2023-04-14T22:14:32.805Z,9.37
2023-04-14T22:16:59.307Z,9.28
2023-04-14T22:19:25.716Z,9.27
2023-04-14T22:21:52.072Z,9.22
2023-04-14T22:24:20.939Z,9.17
2023-04-14T22:26:47.368Z,9.26
2023-04-14T22:29:13.783Z,9.31
2023-04-14T22:31:40.192Z,9.32
2023-04-14T22:34:06.625Z,9.36
2023-04-14T22:36:33.018Z,9.34
2023-04-14T22:38:59.634Z,9.33
2023-04-14T22:41:25.884Z,9.30
2023-04-14T22:43:52.303Z,9.32
2023-04-14T22:46:18.787Z,9.27
2023-04-14T22:48:45.280Z,9.20
2023-04-14T22:51:11.715Z,9.14
2023-04-14T22:53:38.069Z,9.10
2023-04-14T22:56:04.547Z,9.02
2023-04-14T22:58:31.946Z,9.04
2023-04-14T23:00:58.324Z,9.05
2023-04-14T23:03:24.863Z,9.05
2023-04-14T23:05:51.165Z,9.07
2023-04-14T23:08:17.615Z,9.14
2023-04-14T23:10:43.985Z,9.24
2023-04-14T23:13:10.379Z,9.33
2023-04-14T23:15:36.883Z,9.25
